首页
METAR-TAF:

METAR-TAF

机场 :

埃尔森特罗, 加利福尼亚州, 美国

纬度: 32-49-30N, 经度: 115-39-38W, 海拔: 13米

当前天气观测

该预报发布于52分钟前的07:56 UTC
风速9节,风向西
温度 30°C
湿度 18%
气压 1008 hPa
能見度: 16.1公里
天空无云

METAR: KNJK 190756Z AUTO 28009KT 10SM CLR 30/03 A2976 RMK AO2 SLP091 T03000028 404170239 $

时间: 01:48 (08:48 UTC)

预报

预报有效从19日的 07点(UTC)到 20日的 07点(UTC)
风速6节,风向多变
能见度10公里或以上
少量云层高于25000英尺
从 20日的 0000点(UTC)
风速10节,风向南转西南
能見度: 1913
天空无云

TAF: KNJK 1907/2007 VRB06KT 9999 FEW250 QNH2968INS FM200000 20010KT 9999 SKC QNH2961INS AUTOMATED SENSOR METWATCH 1907 TIL 1913 T26/1913Z T47/1922Z FS30146

超过4000个机场的气象观测和天气预报(METAR&TAF报告)。

可查询的气象台以黄色和红色小点在地图上表示。

将鼠标移到小点上方,可查看气象台名称。

然后点击查看天气观测和预报。

如需切换地图:点击带黑十字的绿色按钮放大地图;点击带横线的绿色按钮缩小地图;或者点击绿色箭头查看邻近地区的地图。


METAR-TAF: